sensor_id;sensor_type;location;lat;lon;timestamp;P1;durP1;ratioP1;P2;durP2;ratioP2
75535;SDS011;64119;52.070;20.804;2024-03-08T00:00:14;34.60;;;16.10;;
75535;SDS011;64119;52.070;20.804;2024-03-08T00:03:06;33.70;;;15.90;;
75535;SDS011;64119;52.070;20.804;2024-03-08T00:05:34;30.20;;;15.00;;
75535;SDS011;64119;52.070;20.804;2024-03-08T00:08:02;34.90;;;15.80;;
75535;SDS011;64119;52.070;20.804;2024-03-08T00:10:30;29.30;;;14.90;;
75535;SDS011;64119;52.070;20.804;2024-03-08T00:12:57;36.80;;;16.10;;
75535;SDS011;64119;52.070;20.804;2024-03-08T00:15:25;37.80;;;16.10;;
75535;SDS011;64119;52.070;20.804;2024-03-08T00:17:53;36.70;;;17.50;;
75535;SDS011;64119;52.070;20.804;2024-03-08T00:20:21;35.30;;;17.50;;
75535;SDS011;64119;52.070;20.804;2024-03-08T00:22:51;39.60;;;17.70;;
75535;SDS011;64119;52.070;20.804;2024-03-08T00:25:18;35.00;;;16.70;;
75535;SDS011;64119;52.070;20.804;2024-03-08T00:27:46;31.80;;;15.60;;
75535;SDS011;64119;52.070;20.804;2024-03-08T00:30:17;35.30;;;16.50;;
75535;SDS011;64119;52.070;20.804;2024-03-08T00:32:45;39.40;;;15.30;;
75535;SDS011;64119;52.070;20.804;2024-03-08T00:35:13;32.70;;;15.50;;
75535;SDS011;64119;52.070;20.804;2024-03-08T00:37:41;31.60;;;14.70;;
75535;SDS011;64119;52.070;20.804;2024-03-08T00:40:14;29.90;;;15.70;;
75535;SDS011;64119;52.070;20.804;2024-03-08T00:42:42;26.50;;;14.20;;
75535;SDS011;64119;52.070;20.804;2024-03-08T00:45:11;33.60;;;15.80;;
75535;SDS011;64119;52.070;20.804;2024-03-08T00:47:39;37.50;;;16.00;;
75535;SDS011;64119;52.070;20.804;2024-03-08T00:50:08;30.80;;;14.50;;
75535;SDS011;64119;52.070;20.804;2024-03-08T00:52:39;37.80;;;16.10;;
75535;SDS011;64119;52.070;20.804;2024-03-08T00:55:07;29.10;;;13.50;;
75535;SDS011;64119;52.070;20.804;2024-03-08T00:57:38;31.00;;;15.10;;
75535;SDS011;64119;52.070;20.804;2024-03-08T01:00:06;29.70;;;14.80;;
75535;SDS011;64119;52.070;20.804;2024-03-08T01:02:40;36.30;;;16.80;;
75535;SDS011;64119;52.070;20.804;2024-03-08T01:05:08;24.70;;;12.10;;
75535;SDS011;64119;52.070;20.804;2024-03-08T01:07:36;28.30;;;13.60;;
75535;SDS011;64119;52.070;20.804;2024-03-08T01:10:04;27.50;;;14.50;;
75535;SDS011;64119;52.070;20.804;2024-03-08T01:12:37;32.10;;;14.40;;
75535;SDS011;64119;52.070;20.804;2024-03-08T01:15:07;28.50;;;14.00;;
75535;SDS011;64119;52.070;20.804;2024-03-08T01:17:35;31.30;;;15.20;;
75535;SDS011;64119;52.070;20.804;2024-03-08T01:20:03;33.10;;;14.30;;
75535;SDS011;64119;52.070;20.804;2024-03-08T01:22:32;28.60;;;14.00;;
75535;SDS011;64119;52.070;20.804;2024-03-08T01:25:00;28.10;;;13.30;;
75535;SDS011;64119;52.070;20.804;2024-03-08T01:27:28;33.50;;;14.40;;
75535;SDS011;64119;52.070;20.804;2024-03-08T01:29:55;28.00;;;13.90;;
75535;SDS011;64119;52.070;20.804;2024-03-08T01:32:23;30.70;;;13.60;;
75535;SDS011;64119;52.070;20.804;2024-03-08T01:34:51;30.50;;;14.30;;
75535;SDS011;64119;52.070;20.804;2024-03-08T01:37:19;30.30;;;14.80;;
75535;SDS011;64119;52.070;20.804;2024-03-08T01:39:47;33.00;;;16.40;;
75535;SDS011;64119;52.070;20.804;2024-03-08T01:42:15;27.50;;;14.40;;
75535;SDS011;64119;52.070;20.804;2024-03-08T01:47:12;26.80;;;13.40;;
75535;SDS011;64119;52.070;20.804;2024-03-08T01:49:40;30.70;;;13.70;;
75535;SDS011;64119;52.070;20.804;2024-03-08T01:52:08;31.60;;;14.90;;
75535;SDS011;64119;52.070;20.804;2024-03-08T01:54:36;30.00;;;13.80;;
75535;SDS011;64119;52.070;20.804;2024-03-08T01:57:04;27.00;;;13.80;;
75535;SDS011;64119;52.070;20.804;2024-03-08T01:59:33;32.20;;;14.40;;
75535;SDS011;64119;52.070;20.804;2024-03-08T02:02:01;31.00;;;14.20;;
75535;SDS011;64119;52.070;20.804;2024-03-08T02:04:30;28.90;;;13.50;;
75535;SDS011;64119;52.070;20.804;2024-03-08T02:06:58;29.90;;;14.30;;
75535;SDS011;64119;52.070;20.804;2024-03-08T02:09:26;30.30;;;15.40;;
75535;SDS011;64119;52.070;20.804;2024-03-08T02:11:55;30.70;;;13.60;;
75535;SDS011;64119;52.070;20.804;2024-03-08T02:14:25;30.80;;;14.00;;
75535;SDS011;64119;52.070;20.804;2024-03-08T02:16:53;25.90;;;14.30;;
75535;SDS011;64119;52.070;20.804;2024-03-08T02:19:21;29.50;;;14.30;;
75535;SDS011;64119;52.070;20.804;2024-03-08T02:21:49;28.70;;;13.30;;
75535;SDS011;64119;52.070;20.804;2024-03-08T02:24:17;30.10;;;14.10;;
75535;SDS011;64119;52.070;20.804;2024-03-08T02:26:45;25.70;;;13.70;;
75535;SDS011;64119;52.070;20.804;2024-03-08T02:29:13;33.70;;;14.20;;
75535;SDS011;64119;52.070;20.804;2024-03-08T02:31:42;28.10;;;14.00;;
75535;SDS011;64119;52.070;20.804;2024-03-08T02:34:10;29.50;;;13.30;;
75535;SDS011;64119;52.070;20.804;2024-03-08T02:36:37;33.70;;;14.60;;
75535;SDS011;64119;52.070;20.804;2024-03-08T02:39:06;29.70;;;14.60;;
75535;SDS011;64119;52.070;20.804;2024-03-08T02:41:34;27.00;;;12.90;;
75535;SDS011;64119;52.070;20.804;2024-03-08T02:44:02;31.80;;;14.40;;
75535;SDS011;64119;52.070;20.804;2024-03-08T02:46:31;28.70;;;14.00;;
75535;SDS011;64119;52.070;20.804;2024-03-08T02:48:59;28.80;;;14.00;;
75535;SDS011;64119;52.070;20.804;2024-03-08T02:51:27;27.90;;;13.30;;
75535;SDS011;64119;52.070;20.804;2024-03-08T02:53:56;31.00;;;13.80;;
75535;SDS011;64119;52.070;20.804;2024-03-08T02:56:24;26.10;;;12.70;;
75535;SDS011;64119;52.070;20.804;2024-03-08T02:58:54;27.80;;;12.80;;
75535;SDS011;64119;52.070;20.804;2024-03-08T03:01:21;29.30;;;13.30;;
75535;SDS011;64119;52.070;20.804;2024-03-08T03:03:50;34.90;;;14.70;;
75535;SDS011;64119;52.070;20.804;2024-03-08T03:06:18;27.10;;;13.30;;
75535;SDS011;64119;52.070;20.804;2024-03-08T03:08:48;33.50;;;14.20;;
75535;SDS011;64119;52.070;20.804;2024-03-08T03:11:19;27.40;;;13.10;;
75535;SDS011;64119;52.070;20.804;2024-03-08T03:13:46;27.20;;;13.60;;
75535;SDS011;64119;52.070;20.804;2024-03-08T03:16:16;32.30;;;14.70;;
75535;SDS011;64119;52.070;20.804;2024-03-08T03:18:46;29.60;;;14.60;;
75535;SDS011;64119;52.070;20.804;2024-03-08T03:21:14;34.30;;;14.50;;
75535;SDS011;64119;52.070;20.804;2024-03-08T03:23:43;30.50;;;14.60;;
75535;SDS011;64119;52.070;20.804;2024-03-08T03:26:10;32.10;;;13.20;;
75535;SDS011;64119;52.070;20.804;2024-03-08T03:28:40;29.70;;;14.40;;
75535;SDS011;64119;52.070;20.804;2024-03-08T03:31:08;31.40;;;13.60;;
75535;SDS011;64119;52.070;20.804;2024-03-08T03:33:41;28.30;;;13.90;;
75535;SDS011;64119;52.070;20.804;2024-03-08T03:36:09;30.60;;;14.00;;
75535;SDS011;64119;52.070;20.804;2024-03-08T03:38:38;28.60;;;13.70;;
75535;SDS011;64119;52.070;20.804;2024-03-08T03:41:05;31.10;;;12.90;;
75535;SDS011;64119;52.070;20.804;2024-03-08T03:43:38;31.50;;;13.30;;
75535;SDS011;64119;52.070;20.804;2024-03-08T03:46:07;32.90;;;13.80;;
75535;SDS011;64119;52.070;20.804;2024-03-08T03:48:35;26.40;;;13.40;;
75535;SDS011;64119;52.070;20.804;2024-03-08T03:51:03;33.10;;;14.50;;
75535;SDS011;64119;52.070;20.804;2024-03-08T03:53:31;32.60;;;16.10;;
75535;SDS011;64119;52.070;20.804;2024-03-08T03:55:59;35.20;;;15.00;;
75535;SDS011;64119;52.070;20.804;2024-03-08T03:58:27;35.80;;;14.70;;
75535;SDS011;64119;52.070;20.804;2024-03-08T04:00:55;42.70;;;16.30;;
75535;SDS011;64119;52.070;20.804;2024-03-08T04:03:22;32.60;;;13.00;;
75535;SDS011;64119;52.070;20.804;2024-03-08T04:05:50;28.50;;;13.80;;
75535;SDS011;64119;52.070;20.804;2024-03-08T04:08:18;31.50;;;14.50;;
75535;SDS011;64119;52.070;20.804;2024-03-08T04:10:46;28.90;;;13.10;;
75535;SDS011;64119;52.070;20.804;2024-03-08T04:13:13;32.10;;;14.80;;
75535;SDS011;64119;52.070;20.804;2024-03-08T04:15:43;31.60;;;13.50;;
75535;SDS011;64119;52.070;20.804;2024-03-08T04:18:16;29.30;;;13.30;;
75535;SDS011;64119;52.070;20.804;2024-03-08T04:20:45;34.20;;;15.40;;
75535;SDS011;64119;52.070;20.804;2024-03-08T04:23:14;33.00;;;14.90;;
75535;SDS011;64119;52.070;20.804;2024-03-08T04:25:43;33.80;;;14.80;;
75535;SDS011;64119;52.070;20.804;2024-03-08T04:28:11;31.70;;;14.10;;
75535;SDS011;64119;52.070;20.804;2024-03-08T04:30:39;28.90;;;13.80;;
75535;SDS011;64119;52.070;20.804;2024-03-08T04:33:07;31.40;;;14.20;;
75535;SDS011;64119;52.070;20.804;2024-03-08T04:35:36;33.20;;;14.80;;
75535;SDS011;64119;52.070;20.804;2024-03-08T04:38:04;31.10;;;13.90;;
75535;SDS011;64119;52.070;20.804;2024-03-08T04:40:33;29.10;;;13.80;;
75535;SDS011;64119;52.070;20.804;2024-03-08T04:43:02;26.70;;;12.90;;
75535;SDS011;64119;52.070;20.804;2024-03-08T04:45:30;25.30;;;13.30;;
75535;SDS011;64119;52.070;20.804;2024-03-08T04:47:58;32.90;;;14.90;;
75535;SDS011;64119;52.070;20.804;2024-03-08T04:50:25;33.20;;;15.10;;
75535;SDS011;64119;52.070;20.804;2024-03-08T04:52:56;29.00;;;14.30;;
75535;SDS011;64119;52.070;20.804;2024-03-08T04:55:24;33.90;;;14.60;;
75535;SDS011;64119;52.070;20.804;2024-03-08T04:57:52;33.20;;;15.40;;
75535;SDS011;64119;52.070;20.804;2024-03-08T05:00:20;34.70;;;16.20;;
75535;SDS011;64119;52.070;20.804;2024-03-08T05:02:48;33.50;;;14.10;;
75535;SDS011;64119;52.070;20.804;2024-03-08T05:05:16;32.50;;;15.00;;
75535;SDS011;64119;52.070;20.804;2024-03-08T05:07:44;31.70;;;13.80;;
75535;SDS011;64119;52.070;20.804;2024-03-08T05:10:13;35.30;;;14.20;;
75535;SDS011;64119;52.070;20.804;2024-03-08T05:12:44;40.40;;;14.40;;
75535;SDS011;64119;52.070;20.804;2024-03-08T05:15:12;29.80;;;14.50;;
75535;SDS011;64119;52.070;20.804;2024-03-08T05:17:40;35.60;;;16.20;;
75535;SDS011;64119;52.070;20.804;2024-03-08T05:20:09;29.60;;;14.70;;
75535;SDS011;64119;52.070;20.804;2024-03-08T05:22:40;34.50;;;15.50;;
75535;SDS011;64119;52.070;20.804;2024-03-08T05:25:08;38.50;;;14.70;;
75535;SDS011;64119;52.070;20.804;2024-03-08T05:27:36;36.20;;;16.00;;
75535;SDS011;64119;52.070;20.804;2024-03-08T05:30:04;36.20;;;16.50;;
75535;SDS011;64119;52.070;20.804;2024-03-08T05:32:32;36.60;;;16.40;;
75535;SDS011;64119;52.070;20.804;2024-03-08T05:35:00;33.90;;;17.10;;
75535;SDS011;64119;52.070;20.804;2024-03-08T05:37:28;35.50;;;16.40;;
75535;SDS011;64119;52.070;20.804;2024-03-08T05:39:56;34.60;;;16.20;;
75535;SDS011;64119;52.070;20.804;2024-03-08T05:42:23;37.50;;;17.20;;
75535;SDS011;64119;52.070;20.804;2024-03-08T05:44:51;51.00;;;19.70;;
75535;SDS011;64119;52.070;20.804;2024-03-08T05:47:19;33.70;;;16.30;;
75535;SDS011;64119;52.070;20.804;2024-03-08T05:49:47;42.10;;;18.00;;
75535;SDS011;64119;52.070;20.804;2024-03-08T05:52:15;40.30;;;17.60;;
75535;SDS011;64119;52.070;20.804;2024-03-08T05:54:42;43.20;;;18.40;;
75535;SDS011;64119;52.070;20.804;2024-03-08T05:57:11;38.40;;;16.90;;
75535;SDS011;64119;52.070;20.804;2024-03-08T05:59:39;44.50;;;18.90;;
75535;SDS011;64119;52.070;20.804;2024-03-08T06:02:07;37.70;;;18.10;;
75535;SDS011;64119;52.070;20.804;2024-03-08T06:04:35;42.30;;;19.40;;
75535;SDS011;64119;52.070;20.804;2024-03-08T06:07:03;38.70;;;19.20;;
75535;SDS011;64119;52.070;20.804;2024-03-08T06:09:31;42.90;;;18.30;;
75535;SDS011;64119;52.070;20.804;2024-03-08T06:11:59;38.20;;;18.60;;
75535;SDS011;64119;52.070;20.804;2024-03-08T06:16:57;40.30;;;19.20;;
75535;SDS011;64119;52.070;20.804;2024-03-08T06:19:25;41.40;;;18.70;;
75535;SDS011;64119;52.070;20.804;2024-03-08T06:21:53;52.10;;;21.10;;
75535;SDS011;64119;52.070;20.804;2024-03-08T06:24:21;49.80;;;20.10;;
75535;SDS011;64119;52.070;20.804;2024-03-08T06:26:48;45.90;;;21.30;;
75535;SDS011;64119;52.070;20.804;2024-03-08T06:29:16;42.70;;;19.90;;
75535;SDS011;64119;52.070;20.804;2024-03-08T06:31:44;61.60;;;25.00;;
75535;SDS011;64119;52.070;20.804;2024-03-08T06:34:12;58.70;;;23.60;;
75535;SDS011;64119;52.070;20.804;2024-03-08T06:36:40;60.30;;;23.50;;
75535;SDS011;64119;52.070;20.804;2024-03-08T06:39:08;49.00;;;21.30;;
75535;SDS011;64119;52.070;20.804;2024-03-08T06:41:38;46.70;;;21.90;;
75535;SDS011;64119;52.070;20.804;2024-03-08T06:44:06;28.40;;;13.90;;
75535;SDS011;64119;52.070;20.804;2024-03-08T06:46:36;41.00;;;18.00;;
75535;SDS011;64119;52.070;20.804;2024-03-08T06:49:05;61.70;;;24.00;;
75535;SDS011;64119;52.070;20.804;2024-03-08T06:51:35;49.30;;;25.10;;
75535;SDS011;64119;52.070;20.804;2024-03-08T06:54:02;44.30;;;21.50;;
75535;SDS011;64119;52.070;20.804;2024-03-08T06:56:37;54.10;;;23.30;;
75535;SDS011;64119;52.070;20.804;2024-03-08T06:59:06;44.90;;;21.80;;
75535;SDS011;64119;52.070;20.804;2024-03-08T07:01:34;51.80;;;24.10;;
75535;SDS011;64119;52.070;20.804;2024-03-08T07:04:04;71.80;;;24.40;;
75535;SDS011;64119;52.070;20.804;2024-03-08T07:06:32;56.70;;;24.40;;
75535;SDS011;64119;52.070;20.804;2024-03-08T07:09:04;56.20;;;24.80;;
75535;SDS011;64119;52.070;20.804;2024-03-08T07:11:32;48.60;;;22.70;;
75535;SDS011;64119;52.070;20.804;2024-03-08T07:14:00;44.50;;;20.90;;
75535;SDS011;64119;52.070;20.804;2024-03-08T07:16:30;45.80;;;20.00;;
75535;SDS011;64119;52.070;20.804;2024-03-08T07:18:58;54.10;;;24.30;;
75535;SDS011;64119;52.070;20.804;2024-03-08T07:21:31;51.30;;;22.60;;
75535;SDS011;64119;52.070;20.804;2024-03-08T07:23:59;47.10;;;22.20;;
75535;SDS011;64119;52.070;20.804;2024-03-08T07:26:26;39.00;;;19.60;;
75535;SDS011;64119;52.070;20.804;2024-03-08T07:28:55;48.50;;;21.40;;
75535;SDS011;64119;52.070;20.804;2024-03-08T07:31:22;42.40;;;21.60;;
75535;SDS011;64119;52.070;20.804;2024-03-08T07:33:53;43.30;;;21.90;;
75535;SDS011;64119;52.070;20.804;2024-03-08T07:36:21;48.80;;;23.90;;
75535;SDS011;64119;52.070;20.804;2024-03-08T07:38:50;44.20;;;20.90;;
75535;SDS011;64119;52.070;20.804;2024-03-08T07:41:17;47.20;;;24.20;;
75535;SDS011;64119;52.070;20.804;2024-03-08T07:43:45;47.30;;;21.20;;
75535;SDS011;64119;52.070;20.804;2024-03-08T07:46:13;46.30;;;20.80;;
75535;SDS011;64119;52.070;20.804;2024-03-08T07:48:41;40.50;;;21.30;;
75535;SDS011;64119;52.070;20.804;2024-03-08T07:51:10;34.10;;;16.70;;
75535;SDS011;64119;52.070;20.804;2024-03-08T07:53:39;31.40;;;16.00;;
75535;SDS011;64119;52.070;20.804;2024-03-08T07:56:08;43.80;;;19.40;;
75535;SDS011;64119;52.070;20.804;2024-03-08T07:58:40;34.90;;;19.20;;
75535;SDS011;64119;52.070;20.804;2024-03-08T08:01:08;34.40;;;19.40;;
75535;SDS011;64119;52.070;20.804;2024-03-08T08:03:43;33.20;;;17.80;;
75535;SDS011;64119;52.070;20.804;2024-03-08T08:06:11;31.90;;;16.90;;
75535;SDS011;64119;52.070;20.804;2024-03-08T08:08:43;39.00;;;21.00;;
75535;SDS011;64119;52.070;20.804;2024-03-08T08:11:11;31.10;;;17.70;;
75535;SDS011;64119;52.070;20.804;2024-03-08T08:13:39;29.70;;;15.10;;
75535;SDS011;64119;52.070;20.804;2024-03-08T08:16:09;39.30;;;19.70;;
75535;SDS011;64119;52.070;20.804;2024-03-08T08:18:38;35.40;;;17.70;;
75535;SDS011;64119;52.070;20.804;2024-03-08T08:21:06;33.70;;;16.70;;
75535;SDS011;64119;52.070;20.804;2024-03-08T08:23:34;30.00;;;15.60;;
75535;SDS011;64119;52.070;20.804;2024-03-08T08:26:02;27.00;;;14.50;;
75535;SDS011;64119;52.070;20.804;2024-03-08T08:28:32;26.90;;;15.20;;
75535;SDS011;64119;52.070;20.804;2024-03-08T08:31:00;34.30;;;16.40;;
75535;SDS011;64119;52.070;20.804;2024-03-08T08:33:28;26.10;;;14.00;;
75535;SDS011;64119;52.070;20.804;2024-03-08T08:35:56;38.10;;;17.70;;
75535;SDS011;64119;52.070;20.804;2024-03-08T08:38:24;22.30;;;13.30;;
75535;SDS011;64119;52.070;20.804;2024-03-08T08:40:52;22.20;;;12.60;;
75535;SDS011;64119;52.070;20.804;2024-03-08T08:43:20;24.20;;;10.40;;
75535;SDS011;64119;52.070;20.804;2024-03-08T08:45:51;26.00;;;13.40;;
75535;SDS011;64119;52.070;20.804;2024-03-08T08:48:22;21.70;;;12.50;;
75535;SDS011;64119;52.070;20.804;2024-03-08T08:50:51;30.30;;;17.60;;
75535;SDS011;64119;52.070;20.804;2024-03-08T08:53:19;25.60;;;14.70;;
75535;SDS011;64119;52.070;20.804;2024-03-08T08:55:49;26.00;;;14.30;;
75535;SDS011;64119;52.070;20.804;2024-03-08T08:58:17;29.50;;;15.20;;
75535;SDS011;64119;52.070;20.804;2024-03-08T09:00:46;25.00;;;14.10;;
75535;SDS011;64119;52.070;20.804;2024-03-08T09:03:14;27.50;;;14.70;;
75535;SDS011;64119;52.070;20.804;2024-03-08T09:05:42;25.70;;;14.00;;
75535;SDS011;64119;52.070;20.804;2024-03-08T09:08:12;19.10;;;9.90;;
75535;SDS011;64119;52.070;20.804;2024-03-08T09:10:40;18.20;;;10.00;;
75535;SDS011;64119;52.070;20.804;2024-03-08T09:13:08;17.50;;;9.00;;
75535;SDS011;64119;52.070;20.804;2024-03-08T09:15:44;15.90;;;8.60;;
75535;SDS011;64119;52.070;20.804;2024-03-08T09:18:13;18.50;;;9.40;;
75535;SDS011;64119;52.070;20.804;2024-03-08T09:20:40;21.40;;;10.90;;
75535;SDS011;64119;52.070;20.804;2024-03-08T09:23:08;19.40;;;11.20;;
75535;SDS011;64119;52.070;20.804;2024-03-08T09:25:36;25.90;;;13.00;;
75535;SDS011;64119;52.070;20.804;2024-03-08T09:28:05;20.60;;;11.90;;
75535;SDS011;64119;52.070;20.804;2024-03-08T09:30:33;17.10;;;9.40;;
75535;SDS011;64119;52.070;20.804;2024-03-08T09:33:02;18.70;;;11.70;;
75535;SDS011;64119;52.070;20.804;2024-03-08T09:35:31;23.50;;;13.20;;
75535;SDS011;64119;52.070;20.804;2024-03-08T09:37:59;18.90;;;11.00;;
75535;SDS011;64119;52.070;20.804;2024-03-08T09:40:26;15.60;;;8.40;;
75535;SDS011;64119;52.070;20.804;2024-03-08T09:42:55;16.30;;;9.00;;
75535;SDS011;64119;52.070;20.804;2024-03-08T09:45:23;17.50;;;9.70;;
75535;SDS011;64119;52.070;20.804;2024-03-08T09:47:53;17.50;;;9.20;;
75535;SDS011;64119;52.070;20.804;2024-03-08T09:50:22;19.00;;;10.30;;
75535;SDS011;64119;52.070;20.804;2024-03-08T09:52:50;16.70;;;9.50;;
75535;SDS011;64119;52.070;20.804;2024-03-08T09:55:18;12.80;;;7.70;;
75535;SDS011;64119;52.070;20.804;2024-03-08T09:57:51;13.70;;;8.90;;
75535;SDS011;64119;52.070;20.804;2024-03-08T10:00:39;11.00;;;6.60;;
75535;SDS011;64119;52.070;20.804;2024-03-08T10:03:08;13.40;;;6.60;;
75535;SDS011;64119;52.070;20.804;2024-03-08T10:05:38;12.00;;;7.30;;
75535;SDS011;64119;52.070;20.804;2024-03-08T10:08:06;17.30;;;9.50;;
75535;SDS011;64119;52.070;20.804;2024-03-08T10:10:34;27.50;;;15.10;;
75535;SDS011;64119;52.070;20.804;2024-03-08T10:13:06;15.40;;;10.10;;
75535;SDS011;64119;52.070;20.804;2024-03-08T10:15:36;15.50;;;9.10;;
75535;SDS011;64119;52.070;20.804;2024-03-08T10:18:04;15.30;;;8.40;;
75535;SDS011;64119;52.070;20.804;2024-03-08T10:20:32;13.20;;;7.60;;
75535;SDS011;64119;52.070;20.804;2024-03-08T10:23:01;13.00;;;7.90;;
75535;SDS011;64119;52.070;20.804;2024-03-08T10:25:38;15.50;;;8.30;;
75535;SDS011;64119;52.070;20.804;2024-03-08T10:28:06;13.30;;;8.50;;
75535;SDS011;64119;52.070;20.804;2024-03-08T10:30:34;13.80;;;8.10;;
75535;SDS011;64119;52.070;20.804;2024-03-08T10:33:02;14.00;;;7.50;;
75535;SDS011;64119;52.070;20.804;2024-03-08T10:35:33;16.20;;;9.20;;
75535;SDS011;64119;52.070;20.804;2024-03-08T10:38:00;15.30;;;9.20;;
75535;SDS011;64119;52.070;20.804;2024-03-08T10:40:34;14.90;;;9.50;;
75535;SDS011;64119;52.070;20.804;2024-03-08T10:43:05;13.70;;;8.30;;
75535;SDS011;64119;52.070;20.804;2024-03-08T10:45:41;13.90;;;8.50;;
75535;SDS011;64119;52.070;20.804;2024-03-08T10:48:31;15.80;;;8.60;;
75535;SDS011;64119;52.070;20.804;2024-03-08T10:51:06;13.50;;;8.20;;
75535;SDS011;64119;52.070;20.804;2024-03-08T10:53:39;12.60;;;7.80;;
75535;SDS011;64119;52.070;20.804;2024-03-08T10:56:09;44.50;;;11.80;;
75535;SDS011;64119;52.070;20.804;2024-03-08T10:58:38;12.30;;;7.00;;
75535;SDS011;64119;52.070;20.804;2024-03-08T11:01:06;13.30;;;8.20;;
75535;SDS011;64119;52.070;20.804;2024-03-08T11:08:49;13.20;;;8.40;;
75535;SDS011;64119;52.070;20.804;2024-03-08T11:11:28;15.20;;;8.50;;
75535;SDS011;64119;52.070;20.804;2024-03-08T11:14:02;14.20;;;8.80;;
75535;SDS011;64119;52.070;20.804;2024-03-08T11:19:00;16.60;;;9.20;;
75535;SDS011;64119;52.070;20.804;2024-03-08T11:21:33;15.80;;;9.60;;
75535;SDS011;64119;52.070;20.804;2024-03-08T11:24:01;15.70;;;9.00;;
75535;SDS011;64119;52.070;20.804;2024-03-08T11:26:36;12.80;;;9.40;;
75535;SDS011;64119;52.070;20.804;2024-03-08T11:32:14;14.10;;;8.30;;
75535;SDS011;64119;52.070;20.804;2024-03-08T11:34:43;14.00;;;8.40;;
75535;SDS011;64119;52.070;20.804;2024-03-08T11:37:14;14.80;;;8.80;;
75535;SDS011;64119;52.070;20.804;2024-03-08T11:39:51;14.50;;;8.10;;
75535;SDS011;64119;52.070;20.804;2024-03-08T11:42:19;12.80;;;8.00;;
75535;SDS011;64119;52.070;20.804;2024-03-08T11:44:47;15.10;;;8.80;;
75535;SDS011;64119;52.070;20.804;2024-03-08T11:47:16;15.40;;;9.20;;
75535;SDS011;64119;52.070;20.804;2024-03-08T11:49:45;14.40;;;9.00;;
75535;SDS011;64119;52.070;20.804;2024-03-08T11:52:16;17.20;;;8.20;;
75535;SDS011;64119;52.070;20.804;2024-03-08T11:54:51;15.10;;;8.10;;
75535;SDS011;64119;52.070;20.804;2024-03-08T11:57:27;13.30;;;8.10;;
75535;SDS011;64119;52.070;20.804;2024-03-08T12:02:36;15.30;;;8.50;;
75535;SDS011;64119;52.070;20.804;2024-03-08T12:05:06;17.60;;;9.20;;
75535;SDS011;64119;52.070;20.804;2024-03-08T12:07:35;11.90;;;7.80;;
75535;SDS011;64119;52.070;20.804;2024-03-08T12:10:20;20.30;;;9.60;;
75535;SDS011;64119;52.070;20.804;2024-03-08T12:12:51;13.60;;;7.80;;
75535;SDS011;64119;52.070;20.804;2024-03-08T12:15:21;14.60;;;7.90;;
75535;SDS011;64119;52.070;20.804;2024-03-08T12:17:51;13.60;;;8.20;;
75535;SDS011;64119;52.070;20.804;2024-03-08T12:20:24;13.20;;;8.80;;
75535;SDS011;64119;52.070;20.804;2024-03-08T12:22:53;15.20;;;8.80;;
75535;SDS011;64119;52.070;20.804;2024-03-08T12:25:27;13.40;;;8.30;;
75535;SDS011;64119;52.070;20.804;2024-03-08T12:28:12;14.30;;;7.50;;
75535;SDS011;64119;52.070;20.804;2024-03-08T12:30:45;12.50;;;7.40;;
75535;SDS011;64119;52.070;20.804;2024-03-08T12:33:14;12.00;;;7.70;;
75535;SDS011;64119;52.070;20.804;2024-03-08T12:35:50;14.90;;;9.30;;
75535;SDS011;64119;52.070;20.804;2024-03-08T12:38:23;14.70;;;7.60;;
75535;SDS011;64119;52.070;20.804;2024-03-08T12:40:55;15.70;;;8.00;;
75535;SDS011;64119;52.070;20.804;2024-03-08T12:43:25;14.90;;;8.10;;
75535;SDS011;64119;52.070;20.804;2024-03-08T12:45:53;13.10;;;8.20;;
75535;SDS011;64119;52.070;20.804;2024-03-08T12:48:22;18.80;;;8.10;;
75535;SDS011;64119;52.070;20.804;2024-03-08T12:50:50;14.30;;;8.60;;
75535;SDS011;64119;52.070;20.804;2024-03-08T12:53:19;15.70;;;9.20;;
75535;SDS011;64119;52.070;20.804;2024-03-08T12:55:47;16.50;;;8.50;;
75535;SDS011;64119;52.070;20.804;2024-03-08T12:58:15;14.60;;;8.40;;
75535;SDS011;64119;52.070;20.804;2024-03-08T13:00:44;17.20;;;9.10;;
75535;SDS011;64119;52.070;20.804;2024-03-08T13:03:13;16.60;;;9.50;;
75535;SDS011;64119;52.070;20.804;2024-03-08T13:05:40;15.00;;;9.20;;
75535;SDS011;64119;52.070;20.804;2024-03-08T13:08:10;15.10;;;8.40;;
75535;SDS011;64119;52.070;20.804;2024-03-08T13:10:41;13.90;;;8.10;;
75535;SDS011;64119;52.070;20.804;2024-03-08T13:13:12;15.50;;;8.20;;
75535;SDS011;64119;52.070;20.804;2024-03-08T13:15:45;19.50;;;13.00;;
75535;SDS011;64119;52.070;20.804;2024-03-08T13:18:13;18.70;;;12.00;;
75535;SDS011;64119;52.070;20.804;2024-03-08T13:20:43;16.10;;;10.10;;
75535;SDS011;64119;52.070;20.804;2024-03-08T13:23:17;18.40;;;10.00;;
75535;SDS011;64119;52.070;20.804;2024-03-08T13:25:45;17.40;;;10.20;;
75535;SDS011;64119;52.070;20.804;2024-03-08T13:28:15;16.50;;;9.50;;
75535;SDS011;64119;52.070;20.804;2024-03-08T13:30:44;16.60;;;9.00;;
75535;SDS011;64119;52.070;20.804;2024-03-08T13:33:13;14.40;;;8.10;;
75535;SDS011;64119;52.070;20.804;2024-03-08T13:35:42;14.90;;;8.80;;
75535;SDS011;64119;52.070;20.804;2024-03-08T13:38:10;13.50;;;7.60;;
75535;SDS011;64119;52.070;20.804;2024-03-08T13:40:40;16.10;;;8.80;;
75535;SDS011;64119;52.070;20.804;2024-03-08T13:43:08;17.60;;;7.70;;
75535;SDS011;64119;52.070;20.804;2024-03-08T13:45:36;13.60;;;7.40;;
75535;SDS011;64119;52.070;20.804;2024-03-08T13:48:08;17.80;;;8.50;;
75535;SDS011;64119;52.070;20.804;2024-03-08T13:50:40;13.60;;;8.10;;
75535;SDS011;64119;52.070;20.804;2024-03-08T13:53:08;16.40;;;8.60;;
75535;SDS011;64119;52.070;20.804;2024-03-08T13:55:37;13.10;;;7.60;;
75535;SDS011;64119;52.070;20.804;2024-03-08T13:58:05;13.50;;;7.40;;
75535;SDS011;64119;52.070;20.804;2024-03-08T14:00:37;15.40;;;7.50;;
75535;SDS011;64119;52.070;20.804;2024-03-08T14:03:05;12.30;;;7.20;;
75535;SDS011;64119;52.070;20.804;2024-03-08T14:05:38;12.80;;;7.10;;
75535;SDS011;64119;52.070;20.804;2024-03-08T14:08:10;15.50;;;8.30;;
75535;SDS011;64119;52.070;20.804;2024-03-08T14:10:39;14.10;;;8.40;;
75535;SDS011;64119;52.070;20.804;2024-03-08T14:13:08;14.50;;;8.60;;
75535;SDS011;64119;52.070;20.804;2024-03-08T14:15:36;13.50;;;7.00;;
75535;SDS011;64119;52.070;20.804;2024-03-08T14:18:03;13.20;;;7.90;;
75535;SDS011;64119;52.070;20.804;2024-03-08T14:20:35;13.30;;;6.50;;
75535;SDS011;64119;52.070;20.804;2024-03-08T14:23:02;18.20;;;7.70;;
75535;SDS011;64119;52.070;20.804;2024-03-08T14:25:34;15.80;;;7.30;;
75535;SDS011;64119;52.070;20.804;2024-03-08T14:28:01;14.60;;;6.60;;
75535;SDS011;64119;52.070;20.804;2024-03-08T14:30:34;10.40;;;6.30;;
75535;SDS011;64119;52.070;20.804;2024-03-08T14:33:06;13.80;;;7.50;;
75535;SDS011;64119;52.070;20.804;2024-03-08T14:35:37;19.50;;;6.90;;
75535;SDS011;64119;52.070;20.804;2024-03-08T14:38:06;17.40;;;8.10;;
75535;SDS011;64119;52.070;20.804;2024-03-08T14:40:38;11.00;;;5.70;;
75535;SDS011;64119;52.070;20.804;2024-03-08T14:43:07;15.60;;;6.70;;